createdAt,value
2022-12-25T00:01:06.401Z,10.90
2022-12-25T00:03:33.058Z,8.68
2022-12-25T00:05:59.895Z,7.78
2022-12-25T00:08:26.581Z,7.70
2022-12-25T00:11:00.620Z,7.00
2022-12-25T00:13:27.809Z,6.55
2022-12-25T00:15:54.333Z,4.30
2022-12-25T00:18:21.138Z,5.03
2022-12-25T00:20:57.285Z,6.25
2022-12-25T00:23:24.293Z,5.32
2022-12-25T00:25:51.047Z,6.03
2022-12-25T00:28:17.482Z,6.03
2022-12-25T00:30:43.988Z,6.03
2022-12-25T00:33:10.588Z,5.43
2022-12-25T00:35:37.084Z,6.70
2022-12-25T00:38:03.808Z,6.97
2022-12-25T00:40:30.211Z,7.95
2022-12-25T00:42:56.860Z,7.55
2022-12-25T00:45:23.268Z,8.15
2022-12-25T00:47:49.689Z,7.63
2022-12-25T00:50:16.249Z,7.93
2022-12-25T00:52:42.624Z,7.00
2022-12-25T00:55:09.457Z,7.78
2022-12-25T00:57:36.092Z,6.40
2022-12-25T01:00:02.826Z,7.07
2022-12-25T01:02:29.317Z,6.68
2022-12-25T01:04:56.882Z,5.50
2022-12-25T01:07:25.695Z,5.50
2022-12-25T01:10:10.577Z,7.25
2022-12-25T01:12:45.220Z,6.55
2022-12-25T01:15:13.797Z,6.40
2022-12-25T01:17:41.210Z,6.72
2022-12-25T01:20:08.668Z,6.65
2022-12-25T01:22:35.155Z,7.13
2022-12-25T01:25:03.433Z,7.45
2022-12-25T01:27:29.849Z,7.40
2022-12-25T01:29:56.232Z,7.40
2022-12-25T01:32:22.666Z,6.22
2022-12-25T01:34:53.887Z,7.05
2022-12-25T01:37:24.573Z,6.13
2022-12-25T01:39:51.386Z,6.32
2022-12-25T01:42:19.746Z,7.93
2022-12-25T01:44:46.097Z,7.18
2022-12-25T01:47:13.259Z,6.70
2022-12-25T01:49:42.486Z,8.13
2022-12-25T01:52:23.896Z,6.40
2022-12-25T01:55:00.464Z,5.63
2022-12-25T01:57:30.637Z,5.40
2022-12-25T01:59:59.063Z,6.65
2022-12-25T02:02:26.905Z,5.90
2022-12-25T02:05:30.903Z,6.10
2022-12-25T02:08:01.901Z,5.72
2022-12-25T02:10:28.683Z,5.47
2022-12-25T02:12:55.605Z,5.35
2022-12-25T02:15:27.773Z,6.38
2022-12-25T02:18:02.911Z,6.10
2022-12-25T02:20:52.243Z,5.70
2022-12-25T02:23:54.105Z,5.60
2022-12-25T02:27:28.210Z,5.40
2022-12-25T02:30:00.684Z,5.90
2022-12-25T02:32:35.905Z,5.03
2022-12-25T02:35:34.672Z,5.25
2022-12-25T02:38:07.173Z,4.13
2022-12-25T02:40:42.332Z,3.72
2022-12-25T02:43:35.250Z,3.80
2022-12-25T02:46:25.400Z,3.83
2022-12-25T02:49:25.264Z,5.43
2022-12-25T02:52:26.113Z,5.97
2022-12-25T02:55:26.404Z,6.22
2022-12-25T02:58:19.535Z,5.53
2022-12-25T03:01:18.626Z,5.78
2022-12-25T03:04:08.857Z,5.82
2022-12-25T03:06:44.467Z,5.85
2022-12-25T03:09:36.097Z,5.20
2022-12-25T03:12:13.914Z,5.72
2022-12-25T03:14:59.065Z,5.28
2022-12-25T03:17:25.700Z,6.05
2022-12-25T03:20:11.719Z,4.80
2022-12-25T03:22:58.182Z,5.13
2022-12-25T03:25:42.986Z,4.25
2022-12-25T03:28:09.402Z,5.00
2022-12-25T03:31:07.672Z,4.70
2022-12-25T03:34:13.621Z,4.60
2022-12-25T03:37:16.366Z,4.85
2022-12-25T03:40:01.409Z,4.47
2022-12-25T03:43:10.210Z,4.47
2022-12-25T03:46:05.460Z,4.18
2022-12-25T03:48:54.348Z,4.07
2022-12-25T03:51:47.915Z,4.03
2022-12-25T03:54:36.341Z,4.68
2022-12-25T03:57:21.752Z,4.32
2022-12-25T04:00:06.503Z,4.43
2022-12-25T04:02:52.163Z,3.80
2022-12-25T04:05:37.519Z,5.50
2022-12-25T04:08:22.547Z,4.00
2022-12-25T04:11:07.749Z,3.10
2022-12-25T04:13:53.071Z,4.05
2022-12-25T04:16:38.235Z,3.95
2022-12-25T04:19:29.085Z,4.13
2022-12-25T04:22:16.025Z,3.97
2022-12-25T04:25:00.913Z,4.03
2022-12-25T04:27:46.038Z,4.10
2022-12-25T04:30:31.123Z,3.50
2022-12-25T04:33:19.115Z,4.82
2022-12-25T04:36:07.640Z,4.07
2022-12-25T04:38:34.646Z,4.35
2022-12-25T04:41:01.489Z,4.32
2022-12-25T04:43:27.923Z,4.45
2022-12-25T04:45:55.199Z,3.90
2022-12-25T04:48:22.112Z,4.60
2022-12-25T04:50:48.474Z,3.72
2022-12-25T04:53:15.710Z,4.40
2022-12-25T04:55:42.139Z,4.00
2022-12-25T04:58:08.679Z,3.63
2022-12-25T05:00:35.065Z,4.25
2022-12-25T05:03:01.626Z,3.88
2022-12-25T05:05:28.122Z,4.03
2022-12-25T05:07:54.721Z,3.90
2022-12-25T05:10:21.432Z,4.43
2022-12-25T05:12:47.808Z,4.40
2022-12-25T05:15:14.671Z,3.40
2022-12-25T05:17:41.051Z,4.03
2022-12-25T05:20:07.812Z,3.67
2022-12-25T05:22:34.173Z,4.22
2022-12-25T05:25:00.600Z,4.45
2022-12-25T05:27:26.977Z,3.67
2022-12-25T05:29:53.394Z,4.03
2022-12-25T05:32:19.759Z,4.22
2022-12-25T05:34:48.019Z,4.22
2022-12-25T05:37:14.467Z,4.43
2022-12-25T05:39:40.871Z,5.05
2022-12-25T05:42:07.264Z,4.88
2022-12-25T05:44:33.646Z,4.88
2022-12-25T05:47:00.711Z,4.30
2022-12-25T05:49:28.152Z,3.92
2022-12-25T05:51:54.546Z,4.00
2022-12-25T05:54:22.298Z,4.57
2022-12-25T05:56:48.685Z,4.88
2022-12-25T05:59:15.108Z,3.97
2022-12-25T06:01:41.560Z,4.32
2022-12-25T06:04:12.467Z,3.55
2022-12-25T06:06:39.541Z,3.75
2022-12-25T06:09:05.939Z,3.55
2022-12-25T06:11:32.321Z,4.10
2022-12-25T06:13:58.777Z,3.75
2022-12-25T06:16:37.739Z,4.28
2022-12-25T06:19:06.619Z,4.78
2022-12-25T06:21:33.062Z,4.10
2022-12-25T06:24:00.441Z,5.05
2022-12-25T06:26:27.408Z,5.18
2022-12-25T06:28:53.915Z,4.85
2022-12-25T06:31:22.830Z,4.22
2022-12-25T06:33:49.459Z,4.97
2022-12-25T06:36:19.296Z,5.25
2022-12-25T06:38:46.256Z,4.18
2022-12-25T06:41:15.838Z,5.18
2022-12-25T06:43:43.590Z,4.50
2022-12-25T06:46:12.436Z,5.15
2022-12-25T06:48:40.716Z,4.32
2022-12-25T06:51:07.485Z,4.60
2022-12-25T06:53:39.787Z,4.38
2022-12-25T06:56:09.555Z,4.20
2022-12-25T06:58:45.573Z,4.55
2022-12-25T07:01:24.473Z,4.40
2022-12-25T07:03:56.435Z,4.28
2022-12-25T07:06:23.283Z,4.45
2022-12-25T07:08:49.831Z,4.00
2022-12-25T07:11:16.693Z,4.72
2022-12-25T07:13:44.043Z,4.75
2022-12-25T07:16:12.009Z,4.07
2022-12-25T07:18:38.916Z,4.32
2022-12-25T07:21:16.986Z,4.70
2022-12-25T07:23:44.081Z,3.80
2022-12-25T07:26:12.142Z,4.78
2022-12-25T07:28:44.618Z,4.68
2022-12-25T07:31:16.742Z,4.07
2022-12-25T07:33:43.780Z,3.70
2022-12-25T07:36:12.855Z,4.20
2022-12-25T07:38:40.676Z,5.53
2022-12-25T07:41:10.632Z,6.85
2022-12-25T07:43:37.338Z,6.10
2022-12-25T07:46:03.966Z,7.28
2022-12-25T07:48:30.497Z,7.88
2022-12-25T07:51:11.153Z,6.30
2022-12-25T07:53:38.850Z,6.65
2022-12-25T07:56:16.090Z,5.95
2022-12-25T07:58:50.147Z,5.95
2022-12-25T08:01:25.387Z,6.90
2022-12-25T08:03:58.251Z,6.75
2022-12-25T08:06:29.767Z,6.83
2022-12-25T08:09:05.864Z,8.30
2022-12-25T08:11:32.605Z,6.95
2022-12-25T08:13:59.127Z,7.13
2022-12-25T08:16:26.034Z,6.47
2022-12-25T08:18:53.547Z,6.15
2022-12-25T08:21:19.921Z,7.57
2022-12-25T08:23:48.310Z,7.88
2022-12-25T08:26:19.429Z,7.65
2022-12-25T08:28:45.986Z,8.27
2022-12-25T08:31:23.246Z,8.27
2022-12-25T08:33:52.802Z,7.35
2022-12-25T08:36:19.908Z,7.07
2022-12-25T08:38:46.789Z,7.30
2022-12-25T08:41:14.316Z,8.07
2022-12-25T08:43:41.083Z,7.18
2022-12-25T08:46:08.364Z,6.95
2022-12-25T08:48:35.297Z,6.68
2022-12-25T08:51:02.723Z,7.45
2022-12-25T08:53:29.192Z,7.40
2022-12-25T08:56:06.492Z,7.32
2022-12-25T08:58:34.392Z,6.75
2022-12-25T09:01:01.231Z,7.22
2022-12-25T09:03:28.006Z,7.07
2022-12-25T09:05:55.189Z,7.00
2022-12-25T09:08:22.143Z,7.30
2022-12-25T09:10:48.980Z,7.13
2022-12-25T09:13:15.472Z,6.70
2022-12-25T09:15:42.002Z,5.90
2022-12-25T09:18:08.673Z,3.78
2022-12-25T09:20:35.388Z,3.80
2022-12-25T09:23:13.288Z,3.40
2022-12-25T09:25:40.124Z,3.45
2022-12-25T09:28:06.519Z,2.88
2022-12-25T09:30:32.935Z,3.67
2022-12-25T09:32:59.426Z,4.07
2022-12-25T09:35:26.034Z,4.05
2022-12-25T09:37:52.807Z,3.53
2022-12-25T09:40:21.417Z,3.35
2022-12-25T09:42:49.200Z,3.30
2022-12-25T09:45:24.038Z,2.90
2022-12-25T09:47:55.371Z,3.20
2022-12-25T09:50:34.041Z,3.13
2022-12-25T09:53:15.894Z,3.90
2022-12-25T09:56:11.100Z,3.50
2022-12-25T09:58:37.845Z,3.67
2022-12-25T10:02:11.518Z,3.08
2022-12-25T10:05:13.640Z,3.03
2022-12-25T10:08:12.776Z,2.78
2022-12-25T10:11:04.563Z,3.03
2022-12-25T10:14:03.324Z,3.35
2022-12-25T10:16:29.708Z,3.25
2022-12-25T10:19:10.097Z,3.05
2022-12-25T10:21:36.981Z,3.20
2022-12-25T10:24:21.844Z,2.90
2022-12-25T10:26:51.895Z,2.72
2022-12-25T10:29:20.448Z,2.80
2022-12-25T10:31:55.331Z,3.10
2022-12-25T10:34:23.224Z,3.53
2022-12-25T10:36:50.466Z,2.80
2022-12-25T10:39:23.504Z,3.03
2022-12-25T10:41:50.517Z,3.10
2022-12-25T10:44:24.606Z,3.13
2022-12-25T10:46:57.305Z,2.80
2022-12-25T10:49:29.167Z,2.97
2022-12-25T10:51:55.575Z,2.65
2022-12-25T10:54:32.815Z,2.75
2022-12-25T10:57:03.661Z,2.53
2022-12-25T10:59:35.733Z,2.67
2022-12-25T11:02:18.874Z,2.72
2022-12-25T11:04:46.087Z,3.28
2022-12-25T11:07:24.339Z,2.22
2022-12-25T11:09:59.243Z,1.45
2022-12-25T11:12:41.565Z,2.03
2022-12-25T11:15:34.186Z,1.80
2022-12-25T11:18:00.660Z,1.85
2022-12-25T11:20:27.258Z,1.98
2022-12-25T11:22:54.038Z,2.10
2022-12-25T11:25:26.667Z,2.22
2022-12-25T11:28:00.968Z,2.20
2022-12-25T11:30:30.907Z,2.17
2022-12-25T11:33:02.504Z,1.73
2022-12-25T11:35:32.485Z,2.15
2022-12-25T11:37:58.899Z,2.05
2022-12-25T11:40:30.762Z,2.03
2022-12-25T11:43:11.393Z,2.35
2022-12-25T11:45:51.598Z,1.88
2022-12-25T11:48:23.476Z,3.42
2022-12-25T11:50:53.737Z,2.40
2022-12-25T11:53:32.056Z,1.80
2022-12-25T11:56:17.294Z,1.85
2022-12-25T11:58:50.983Z,1.88
2022-12-25T12:03:49.061Z,2.10
2022-12-25T12:06:52.255Z,1.90
2022-12-25T12:09:36.534Z,2.17
2022-12-25T12:12:11.883Z,1.75
2022-12-25T12:15:00.218Z,1.92
2022-12-25T12:17:26.797Z,1.80
2022-12-25T12:19:53.240Z,1.92
2022-12-25T12:22:25.442Z,4.25
2022-12-25T12:25:14.821Z,7.40
2022-12-25T12:27:42.091Z,5.53
2022-12-25T12:30:27.685Z,2.03
2022-12-25T12:32:58.620Z,2.33
2022-12-25T12:35:31.993Z,1.80
2022-12-25T12:38:23.109Z,2.63
2022-12-25T12:41:07.723Z,2.50
2022-12-25T12:43:45.080Z,3.25
2022-12-25T12:46:25.955Z,2.47
2022-12-25T12:49:23.944Z,2.10
2022-12-25T12:51:51.423Z,2.55
2022-12-25T12:54:23.985Z,2.30
2022-12-25T12:57:01.516Z,2.65
2022-12-25T12:59:40.266Z,2.83
2022-12-25T13:02:26.397Z,2.55
2022-12-25T13:05:00.928Z,3.28
2022-12-25T13:07:35.337Z,3.78
2022-12-25T13:10:30.781Z,3.05
2022-12-25T13:13:01.228Z,3.00
2022-12-25T13:15:32.505Z,2.95
2022-12-25T13:18:04.038Z,2.10
2022-12-25T13:20:40.464Z,2.38
2022-12-25T13:23:27.791Z,2.53
2022-12-25T13:25:56.419Z,2.60
2022-12-25T13:28:32.217Z,2.67
2022-12-25T13:31:17.223Z,2.40
2022-12-25T13:33:52.646Z,2.47
2022-12-25T13:36:19.288Z,2.40
2022-12-25T13:38:50.712Z,2.25
2022-12-25T13:41:42.927Z,2.03
2022-12-25T13:44:22.669Z,2.30
2022-12-25T13:46:49.385Z,2.50
2022-12-25T13:49:21.803Z,1.80
2022-12-25T13:51:48.980Z,1.70
2022-12-25T13:54:17.225Z,1.80
2022-12-25T13:57:15.441Z,2.38
2022-12-25T13:59:44.444Z,2.20
2022-12-25T14:02:20.802Z,2.22
2022-12-25T14:04:47.471Z,2.10
2022-12-25T14:07:20.919Z,3.70
2022-12-25T14:09:52.325Z,1.80
2022-12-25T14:12:19.871Z,2.05
2022-12-25T14:14:48.395Z,2.13
2022-12-25T14:17:14.952Z,1.98
2022-12-25T14:19:41.401Z,2.38
2022-12-25T14:22:18.827Z,4.90
2022-12-25T14:24:45.290Z,2.20
2022-12-25T14:27:28.039Z,2.03
2022-12-25T14:29:58.020Z,2.50
2022-12-25T14:32:27.944Z,2.38
2022-12-25T14:34:58.591Z,2.90
2022-12-25T14:37:29.641Z,3.05
2022-12-25T14:40:01.662Z,2.53
2022-12-25T14:42:31.801Z,2.35
2022-12-25T14:45:26.123Z,3.65
2022-12-25T14:47:55.547Z,6.80
2022-12-25T14:50:44.889Z,2.90
2022-12-25T14:53:23.598Z,3.00
2022-12-25T14:55:53.301Z,2.65
2022-12-25T14:58:26.731Z,2.50
2022-12-25T15:01:04.547Z,1.95
2022-12-25T15:03:35.297Z,1.98
2022-12-25T15:06:04.992Z,1.88
2022-12-25T15:08:33.666Z,1.63
2022-12-25T15:11:02.484Z,1.73
2022-12-25T15:13:31.056Z,2.22
2022-12-25T15:16:02.748Z,2.13
2022-12-25T15:18:35.257Z,2.88
2022-12-25T15:21:02.169Z,2.28
2022-12-25T15:23:28.611Z,2.05
2022-12-25T15:25:55.048Z,2.17
2022-12-25T15:28:21.440Z,2.70
2022-12-25T15:30:49.696Z,2.30
2022-12-25T15:33:18.284Z,2.35
2022-12-25T15:35:45.001Z,2.60
2022-12-25T15:38:12.872Z,2.90
2022-12-25T15:40:39.940Z,2.85
2022-12-25T15:43:20.878Z,2.80
2022-12-25T15:45:53.152Z,3.08
2022-12-25T15:48:19.578Z,2.75
2022-12-25T15:50:46.784Z,2.70
2022-12-25T15:53:13.279Z,3.33
2022-12-25T15:55:39.893Z,2.90
2022-12-25T15:58:06.282Z,2.90
2022-12-25T16:00:32.874Z,3.58
2022-12-25T16:02:59.563Z,2.83
2022-12-25T16:05:26.814Z,3.17
2022-12-25T16:07:53.222Z,2.90
2022-12-25T16:10:20.266Z,3.10
2022-12-25T16:12:46.731Z,3.20
2022-12-25T16:15:14.817Z,3.60
2022-12-25T16:17:41.634Z,3.00
2022-12-25T16:20:09.086Z,3.10
2022-12-25T16:22:39.944Z,3.60
2022-12-25T16:25:18.338Z,3.72
2022-12-25T16:27:45.397Z,3.13
2022-12-25T16:30:14.648Z,3.28
2022-12-25T16:32:42.367Z,3.60
2022-12-25T16:35:10.897Z,3.15
2022-12-25T16:37:37.831Z,4.40
2022-12-25T16:40:04.503Z,3.10
2022-12-25T16:42:31.007Z,3.40
2022-12-25T16:44:57.368Z,4.30
2022-12-25T16:47:24.155Z,4.18
2022-12-25T16:49:50.600Z,3.85
2022-12-25T16:52:17.017Z,3.78
2022-12-25T16:54:46.272Z,4.35
2022-12-25T16:57:13.639Z,4.75
2022-12-25T16:59:40.064Z,4.75
2022-12-25T17:02:06.675Z,3.47
2022-12-25T17:04:33.225Z,3.65
2022-12-25T17:06:59.645Z,3.20
2022-12-25T17:09:26.330Z,3.33
2022-12-25T17:11:52.960Z,3.65
2022-12-25T17:14:19.647Z,3.75
2022-12-25T17:16:46.191Z,4.00
2022-12-25T17:19:18.324Z,4.25
2022-12-25T17:21:45.203Z,4.18
2022-12-25T17:24:11.757Z,3.80
2022-12-25T17:26:38.447Z,4.18
2022-12-25T17:29:04.879Z,3.78
2022-12-25T17:31:31.512Z,3.97
2022-12-25T17:34:01.488Z,3.30
2022-12-25T17:36:28.072Z,3.30
2022-12-25T17:38:54.480Z,3.83
2022-12-25T17:41:21.729Z,3.22
2022-12-25T17:43:48.370Z,3.40
2022-12-25T17:46:18.144Z,4.00
2022-12-25T17:48:45.689Z,3.67
2022-12-25T17:51:14.612Z,3.50
2022-12-25T17:53:43.246Z,3.38
2022-12-25T17:56:10.278Z,3.50
2022-12-25T17:58:37.893Z,3.50
2022-12-25T18:01:11.675Z,3.53
2022-12-25T18:03:38.773Z,3.67
2022-12-25T18:06:13.230Z,3.63
2022-12-25T18:08:41.076Z,4.68
2022-12-25T18:11:09.653Z,3.67
2022-12-25T18:13:37.113Z,4.03
2022-12-25T18:16:06.444Z,4.10
2022-12-25T18:18:33.344Z,3.60
2022-12-25T18:20:59.851Z,3.20
2022-12-25T18:23:26.336Z,3.30
2022-12-25T18:25:52.756Z,3.30
2022-12-25T18:28:19.686Z,4.82
2022-12-25T18:30:46.683Z,3.55
2022-12-25T18:33:13.847Z,3.65
2022-12-25T18:35:42.807Z,3.38
2022-12-25T18:38:10.969Z,3.50
2022-12-25T18:40:45.291Z,4.10
2022-12-25T18:43:12.884Z,3.50
2022-12-25T18:45:39.814Z,4.03
2022-12-25T18:48:06.552Z,3.53
2022-12-25T18:50:34.427Z,4.15
2022-12-25T18:53:01.507Z,3.78
2022-12-25T18:55:28.260Z,4.40
2022-12-25T18:57:55.154Z,4.40
2022-12-25T19:00:22.194Z,4.28
2022-12-25T19:02:49.241Z,4.18
2022-12-25T19:05:16.860Z,3.70
2022-12-25T19:07:43.441Z,4.47
2022-12-25T19:10:10.452Z,4.65
2022-12-25T19:12:36.871Z,3.40
2022-12-25T19:15:03.882Z,3.70
2022-12-25T19:17:32.222Z,4.28
2022-12-25T19:19:59.051Z,3.63
2022-12-25T19:22:26.503Z,3.60
2022-12-25T19:24:53.149Z,3.80
2022-12-25T19:27:19.616Z,3.10
2022-12-25T19:29:46.382Z,4.10
2022-12-25T19:32:12.779Z,3.35
2022-12-25T19:34:39.157Z,3.55
2022-12-25T19:37:05.891Z,3.80
2022-12-25T19:39:32.350Z,4.40
2022-12-25T19:41:58.734Z,3.92
2022-12-25T19:44:25.172Z,3.78
2022-12-25T19:46:51.586Z,3.72
2022-12-25T19:49:18.045Z,3.85
2022-12-25T19:51:46.264Z,3.72
2022-12-25T19:54:15.494Z,3.70
2022-12-25T19:56:43.522Z,3.83
2022-12-25T19:59:12.653Z,3.35
2022-12-25T20:01:39.250Z,3.80
2022-12-25T20:04:08.708Z,3.72
2022-12-25T20:06:36.691Z,3.75
2022-12-25T20:09:09.578Z,4.75
2022-12-25T20:11:37.536Z,3.60
2022-12-25T20:14:05.553Z,3.40
2022-12-25T20:16:32.736Z,3.35
2022-12-25T20:18:59.600Z,3.10
2022-12-25T20:21:30.013Z,3.55
2022-12-25T20:23:57.165Z,3.67
2022-12-25T20:26:26.422Z,3.13
2022-12-25T20:28:52.828Z,3.38
2022-12-25T20:31:22.827Z,4.70
2022-12-25T20:33:49.648Z,6.43
2022-12-25T20:36:16.365Z,7.45
2022-12-25T20:38:42.773Z,4.63
2022-12-25T20:41:29.108Z,3.60
2022-12-25T20:43:56.386Z,3.42
2022-12-25T20:46:23.901Z,3.40
2022-12-25T20:48:50.457Z,2.90
2022-12-25T20:51:20.080Z,3.13
2022-12-25T20:53:46.880Z,2.80
2022-12-25T20:56:15.994Z,2.80
2022-12-25T20:58:42.901Z,2.95
2022-12-25T21:01:12.645Z,2.88
2022-12-25T21:03:40.363Z,3.38
2022-12-25T21:06:07.800Z,2.63
2022-12-25T21:08:34.492Z,3.08
2022-12-25T21:11:01.765Z,3.55
2022-12-25T21:13:29.743Z,3.10
2022-12-25T21:15:57.896Z,3.00
2022-12-25T21:18:26.768Z,5.15
2022-12-25T21:20:56.972Z,3.97
2022-12-25T21:23:26.567Z,2.80
2022-12-25T21:25:54.383Z,3.55
2022-12-25T21:28:22.484Z,2.88
2022-12-25T21:30:49.011Z,3.88
2022-12-25T21:33:34.449Z,3.08
2022-12-25T21:36:11.179Z,3.50
2022-12-25T21:38:38.275Z,3.00
2022-12-25T21:41:06.938Z,3.13
2022-12-25T21:43:34.825Z,3.70
2022-12-25T21:46:07.282Z,2.90
2022-12-25T21:48:35.033Z,3.63
2022-12-25T21:51:41.216Z,3.20
2022-12-25T21:54:08.663Z,3.60
2022-12-25T21:56:43.537Z,3.30
2022-12-25T21:59:13.367Z,3.92
2022-12-25T22:01:39.870Z,3.10
2022-12-25T22:04:09.002Z,3.80
2022-12-25T22:06:54.564Z,3.55
2022-12-25T22:09:21.908Z,3.40
2022-12-25T22:12:06.747Z,3.45
2022-12-25T22:14:56.587Z,3.05
2022-12-25T22:17:46.469Z,3.13
2022-12-25T22:20:19.868Z,2.80
2022-12-25T22:22:46.297Z,2.95
2022-12-25T22:25:13.729Z,3.05
2022-12-25T22:27:41.762Z,3.55
2022-12-25T22:30:12.402Z,2.95
2022-12-25T22:32:39.100Z,2.85
2022-12-25T22:35:06.257Z,3.17
2022-12-25T22:37:32.866Z,3.35
2022-12-25T22:40:01.262Z,2.85
2022-12-25T22:42:28.183Z,3.70
2022-12-25T22:44:54.592Z,3.20
2022-12-25T22:47:21.072Z,3.17
2022-12-25T22:49:47.461Z,2.72
2022-12-25T22:52:14.258Z,3.08
2022-12-25T22:54:40.662Z,3.65
2022-12-25T22:57:07.076Z,3.28
2022-12-25T22:59:33.839Z,3.22
2022-12-25T23:02:00.962Z,3.08
2022-12-25T23:04:28.357Z,3.25
2022-12-25T23:06:55.612Z,3.45
2022-12-25T23:09:27.565Z,3.35
2022-12-25T23:11:56.105Z,2.92
2022-12-25T23:14:41.786Z,2.80
2022-12-25T23:17:32.056Z,2.90
2022-12-25T23:20:18.991Z,3.47
2022-12-25T23:23:17.090Z,2.90
2022-12-25T23:26:02.634Z,3.08
2022-12-25T23:28:47.946Z,2.90
2022-12-25T23:31:14.500Z,3.28
2022-12-25T23:33:41.007Z,3.03
2022-12-25T23:36:07.654Z,3.05
2022-12-25T23:38:34.049Z,3.13
2022-12-25T23:41:00.520Z,3.42
2022-12-25T23:43:27.124Z,2.80
2022-12-25T23:45:53.493Z,3.72
2022-12-25T23:48:19.861Z,3.45
2022-12-25T23:50:46.392Z,3.75
2022-12-25T23:53:12.781Z,3.50
2022-12-25T23:55:39.355Z,3.50
2022-12-25T23:58:05.826Z,3.00
